Time;durP1;ratioP1;P1;durP2;ratioP2;P2;SDS_P1;SDS_P2;PMS_P1;PMS_P2;Temp;Humidity;BMP_temperature;BMP_pressure;BME280_temperature;BME280_humidity;BME280_pressure;Samples;Min_cycle;Max_cycle;Signal;HPM_P1;HPM_P2
2021/11/22 00:01:40;;;;;;;3.72;2.60;;;17.20;73.60;;;;;;5008530;28;95752;-64
2021/11/22 00:04:12;;;;;;;5.53;2.83;;;17.30;73.60;;;;;;5005251;28;96391;-64
2021/11/22 00:06:42;;;;;;;4.20;2.67;;;17.20;73.50;;;;;;5005403;28;95922;-64
2021/11/22 00:09:13;;;;;;;4.75;2.90;;;17.30;73.60;;;;;;5008680;28;95171;-63
2021/11/22 00:11:48;;;;;;;3.55;2.50;;;17.30;73.50;;;;;;5006118;28;95772;-64
2021/11/22 00:14:19;;;;;;;4.70;2.90;;;17.30;73.50;;;;;;5007309;28;95944;-63
2021/11/22 00:16:50;;;;;;;4.15;2.42;;;17.40;73.50;;;;;;5008439;28;95837;-64
2021/11/22 00:19:22;;;;;;;4.28;2.38;;;17.40;73.40;;;;;;4996585;28;95821;-63
2021/11/22 00:21:53;;;;;;;5.60;2.63;;;17.50;73.40;;;;;;5008192;28;95841;-63
2021/11/22 00:24:25;;;;;;;4.63;2.80;;;17.50;73.20;;;;;;4987974;28;96868;-64
2021/11/22 00:26:57;;;;;;;4.20;3.15;;;17.50;73.20;;;;;;5005130;28;95625;-63
2021/11/22 00:29:29;;;;;;;3.85;2.97;;;17.50;73.20;;;;;;5005495;28;95833;-63
2021/11/22 00:32:22;;;;;;;7.30;3.20;;;17.60;73.20;;;;;;4974090;28;95376;-63
2021/11/22 00:35:18;;;;;;;4.65;2.60;;;17.60;73.10;;;;;;4961077;28;96839;-64
2021/11/22 00:37:51;;;;;;;4.60;2.63;;;17.70;73.10;;;;;;4993923;28;95805;-64
2021/11/22 00:40:23;;;;;;;3.78;2.53;;;17.70;73.10;;;;;;5002411;28;95740;-64
2021/11/22 00:42:53;;;;;;;5.93;2.90;;;17.70;73.00;;;;;;5002342;28;95376;-64
2021/11/22 00:45:23;;;;;;;4.07;2.65;;;17.80;72.90;;;;;;5004930;28;96284;-64
2021/11/22 00:47:57;;;;;;;3.60;2.47;;;17.80;72.90;;;;;;5005419;28;95877;-64
2021/11/22 00:50:29;;;;;;;3.70;2.30;;;17.80;72.80;;;;;;5007993;28;95747;-65
2021/11/22 00:53:03;;;;;;;3.83;2.35;;;17.90;72.90;;;;;;5008810;28;95667;-63
2021/11/22 00:55:33;;;;;;;2.65;2.22;;;17.90;72.80;;;;;;5009710;28;96701;-64
2021/11/22 00:58:04;;;;;;;3.25;2.05;;;17.90;72.80;;;;;;5008074;28;95733;-64
2021/11/22 01:00:38;;;;;;;3.92;2.75;;;18.00;72.80;;;;;;4985318;28;96166;-65
2021/11/22 01:03:09;;;;;;;4.90;3.00;;;18.00;72.70;;;;;;4987867;28;95903;-64
2021/11/22 01:05:40;;;;;;;4.53;2.50;;;18.00;72.70;;;;;;5002937;28;96447;-65
2021/11/22 01:08:11;;;;;;;3.33;2.55;;;18.10;72.70;;;;;;5006339;28;98423;-65
2021/11/22 01:10:42;;;;;;;3.72;2.42;;;18.10;72.70;;;;;;5005632;28;95795;-64
2021/11/22 01:13:13;;;;;;;3.22;2.33;;;18.20;72.60;;;;;;5008704;28;95771;-63
2021/11/22 01:15:44;;;;;;;3.97;2.95;;;18.20;72.60;;;;;;4983802;28;96559;-65
2021/11/22 01:18:16;;;;;;;2.65;2.45;;;18.20;72.50;;;;;;4997499;28;95772;-64
2021/11/22 01:20:47;;;;;;;3.75;2.70;;;18.20;72.50;;;;;;5005954;28;95319;-62
2021/11/22 01:23:18;;;;;;;2.83;2.40;;;18.30;72.50;;;;;;4989312;28;95732;-64
2021/11/22 01:25:49;;;;;;;2.70;2.35;;;18.30;72.40;;;;;;5004503;28;96446;-64
2021/11/22 01:28:21;;;;;;;4.20;2.42;;;18.40;72.50;;;;;;5002318;28;96249;-64
2021/11/22 01:30:53;;;;;;;4.57;2.53;;;18.40;72.30;;;;;;5007158;28;95940;-63
2021/11/22 01:33:26;;;;;;;3.05;2.65;;;18.50;72.30;;;;;;5008223;28;95721;-63
2021/11/22 01:35:58;;;;;;;4.10;3.03;;;18.50;72.20;;;;;;4992287;28;96033;-63
2021/11/22 01:38:34;;;;;;;2.90;2.70;;;18.50;72.20;;;;;;4991502;28;95665;-63
2021/11/22 01:41:06;;;;;;;2.65;2.45;;;18.50;72.10;;;;;;5004645;28;96685;-63
2021/11/22 01:43:36;;;;;;;3.88;2.90;;;18.60;72.10;;;;;;5006627;28;95901;-63
2021/11/22 01:46:06;;;;;;;3.05;2.63;;;18.60;72.10;;;;;;5005367;28;96057;-63
2021/11/22 01:48:37;;;;;;;2.42;2.15;;;18.60;72.00;;;;;;5011268;28;95867;-64
2021/11/22 01:51:10;;;;;;;4.03;2.45;;;18.70;72.00;;;;;;5009560;28;95748;-63
2021/11/22 01:53:42;;;;;;;3.30;2.53;;;18.70;72.00;;;;;;5011775;28;95909;-61
2021/11/22 01:56:21;;;;;;;2.50;2.30;;;18.80;71.90;;;;;;5011736;28;96542;-63
2021/11/22 01:58:53;;;;;;;2.97;2.58;;;18.80;71.90;;;;;;5008801;28;96035;-63
2021/11/22 02:01:25;;;;;;;3.38;2.40;;;18.90;71.90;;;;;;5014652;28;95200;-64
2021/11/22 02:03:57;;;;;;;2.90;2.60;;;18.90;71.80;;;;;;5012080;28;95623;-64
2021/11/22 02:06:27;;;;;;;3.97;2.97;;;19.00;71.90;;;;;;5011029;28;96124;-64
2021/11/22 02:08:59;;;;;;;4.38;2.97;;;19.00;71.70;;;;;;5016595;28;95590;-64
2021/11/22 02:11:32;;;;;;;3.00;2.55;;;19.00;71.70;;;;;;5015441;28;97086;-64
2021/11/22 02:14:04;;;;;;;7.10;2.78;;;19.00;71.60;;;;;;5006891;28;95763;-64
2021/11/22 02:16:35;;;;;;;;;;;19.10;71.60;;;;;;5010918;28;96311;-64
2021/11/22 02:19:10;;;;;;;3.88;2.33;;;19.10;71.50;;;;;;4994327;28;96380;-64
2021/11/22 02:21:40;;;;;;;3.75;2.50;;;19.20;71.60;;;;;;5004717;28;95698;-64
2021/11/22 02:24:11;;;;;;;2.55;2.20;;;19.20;71.50;;;;;;4999031;28;95776;-64
2021/11/22 02:26:42;;;;;;;2.45;2.22;;;19.30;71.50;;;;;;5010912;28;96054;-63
2021/11/22 02:29:16;;;;;;;2.35;2.15;;;19.30;71.40;;;;;;5007466;28;95816;-63
2021/11/22 02:31:50;;;;;;;2.70;2.50;;;19.30;71.20;;;;;;4987529;28;97456;-64
2021/11/22 02:34:22;;;;;;;2.58;2.38;;;19.40;71.30;;;;;;5007623;28;95622;-63
2021/11/22 02:36:55;;;;;;;2.63;2.35;;;19.40;71.20;;;;;;4993763;28;96076;-62
2021/11/22 02:39:28;;;;;;;3.42;2.60;;;19.50;71.20;;;;;;5006088;28;98614;-64
2021/11/22 02:42:04;;;;;;;3.63;2.25;;;19.50;71.20;;;;;;5014881;28;95688;-63
2021/11/22 02:44:38;;;;;;;2.45;2.25;;;19.50;71.20;;;;;;5010818;28;96567;-63
2021/11/22 02:47:10;;;;;;;3.42;3.00;;;19.60;71.10;;;;;;5009292;28;96053;-60
2021/11/22 02:49:42;;;;;;;2.65;2.45;;;19.60;71.10;;;;;;5008621;28;95481;-59
2021/11/22 02:52:13;;;;;;;3.55;2.50;;;19.60;71.00;;;;;;5013936;28;95525;-63
2021/11/22 02:54:44;;;;;;;3.45;3.05;;;19.60;71.00;;;;;;5009147;28;96950;-63
2021/11/22 02:57:15;;;;;;;3.45;3.15;;;19.70;70.90;;;;;;5017055;28;96441;-64
2021/11/22 02:59:46;;;;;;;2.65;2.35;;;19.70;71.00;;;;;;5006914;28;96145;-63
2021/11/22 03:02:18;;;;;;;4.13;2.70;;;19.80;71.00;;;;;;5012255;28;95857;-64
2021/11/22 03:04:48;;;;;;;;;;;19.80;71.00;;;;;;5013180;28;95302;-63
2021/11/22 03:07:19;;;;;;;2.78;2.42;;;19.90;70.90;;;;;;5010919;28;96024;-62
2021/11/22 03:09:49;;;;;;;6.38;2.97;;;19.90;70.90;;;;;;5007856;28;95836;-62
2021/11/22 03:12:19;;;;;;;2.73;2.53;;;19.90;70.80;;;;;;5006655;28;95583;-64
2021/11/22 03:14:51;;;;;;;3.85;2.78;;;20.00;70.80;;;;;;5009453;28;95690;-62
2021/11/22 03:17:22;;;;;;;3.58;2.80;;;20.00;70.80;;;;;;5006953;28;97047;-62
2021/11/22 03:19:54;;;;;;;2.95;2.70;;;20.00;70.70;;;;;;4991377;28;97663;-62
2021/11/22 03:22:24;;;;;;;3.55;2.70;;;20.10;70.70;;;;;;5009410;28;95842;-62
2021/11/22 03:24:56;;;;;;;4.20;3.05;;;20.10;70.70;;;;;;5007966;28;97939;-60
2021/11/22 03:27:29;;;;;;;3.13;2.88;;;20.10;69.30;;;;;;5011897;28;96440;-61
2021/11/22 03:30:02;;;;;;;3.20;2.88;;;20.10;70.50;;;;;;5006667;28;95679;-64
2021/11/22 03:32:39;;;;;;;5.18;3.05;;;20.20;71.20;;;;;;5005524;28;95985;-63
2021/11/22 03:35:14;;;;;;;4.40;2.92;;;20.20;70.60;;;;;;4992256;28;95469;-57
2021/11/22 03:37:51;;;;;;;3.55;2.67;;;20.30;70.70;;;;;;4989307;28;96096;-63
2021/11/22 03:40:22;;;;;;;3.45;3.15;;;20.30;70.60;;;;;;5003255;28;96327;-62
2021/11/22 03:43:12;;;;;;;4.23;3.37;;;20.30;70.70;;;;;;4991479;28;95810;-63
2021/11/22 03:45:48;;;;;;;4.25;3.55;;;20.40;70.60;;;;;;4985949;28;95660;-62
2021/11/22 03:48:18;;;;;;;3.05;2.58;;;20.40;70.60;;;;;;5006918;28;96079;-63
2021/11/22 03:50:50;;;;;;;3.78;2.75;;;20.40;70.60;;;;;;5008188;28;95986;-62
2021/11/22 03:53:25;;;;;;;3.13;2.55;;;20.50;70.60;;;;;;5009573;28;95850;-62
2021/11/22 03:55:59;;;;;;;3.33;3.03;;;20.50;70.60;;;;;;5006778;28;95808;-62
2021/11/22 03:58:29;;;;;;;3.75;2.80;;;20.50;70.60;;;;;;5006337;28;96063;-62
2021/11/22 04:01:02;;;;;;;3.63;2.97;;;20.50;70.40;;;;;;5007572;28;96373;-63
2021/11/22 04:03:33;;;;;;;3.10;2.80;;;20.60;71.10;;;;;;5007190;28;97670;-63
2021/11/22 04:06:04;;;;;;;4.03;2.67;;;20.60;70.40;;;;;;5006906;28;95752;-64
2021/11/22 04:08:34;;;;;;;2.92;2.50;;;20.60;70.40;;;;;;5009142;28;96837;-62
2021/11/22 04:11:08;;;;;;;3.00;2.72;;;20.70;70.30;;;;;;5008314;28;95894;-63
2021/11/22 04:13:39;;;;;;;3.20;2.90;;;20.70;71.00;;;;;;5009502;28;95979;-63
2021/11/22 04:16:10;;;;;;;3.17;2.75;;;20.70;70.30;;;;;;5007494;28;96488;-63
2021/11/22 04:18:44;;;;;;;3.58;2.67;;;20.70;70.30;;;;;;5009031;28;96393;-64
2021/11/22 04:21:20;;;;;;;3.63;3.08;;;20.80;70.20;;;;;;5014319;28;97553;-63
2021/11/22 04:23:51;;;;;;;3.67;2.80;;;20.80;68.90;;;;;;5000922;28;95257;-63
2021/11/22 04:26:22;;;;;;;2.60;2.40;;;20.80;70.10;;;;;;5006237;28;95869;-62
2021/11/22 04:28:55;;;;;;;3.58;2.60;;;20.90;70.20;;;;;;5006144;28;96988;-63
2021/11/22 04:31:28;;;;;;;2.80;2.60;;;20.90;70.10;;;;;;5003608;28;96079;-63
2021/11/22 04:34:00;;;;;;;3.22;2.38;;;21.00;70.70;;;;;;5009423;28;95925;-63
2021/11/22 04:36:31;;;;;;;3.75;3.45;;;21.00;70.00;;;;;;4988616;28;95805;-63
2021/11/22 04:39:04;;;;;;;3.20;2.85;;;21.00;69.90;;;;;;5001954;28;97078;-63
2021/11/22 04:41:36;;;;;;;3.88;3.03;;;21.00;69.90;;;;;;4998665;28;95866;-63
2021/11/22 04:44:07;;;;;;;3.10;2.58;;;21.10;69.90;;;;;;5008911;28;95410;-63
2021/11/22 04:46:37;;;;;;;3.75;3.00;;;21.10;69.80;;;;;;5006485;28;95326;-62
2021/11/22 04:49:08;;;;;;;3.55;3.22;;;21.10;69.80;;;;;;5006248;28;96394;-64
2021/11/22 04:51:40;;;;;;;3.75;2.97;;;21.10;69.70;;;;;;5009128;28;96613;-64
2021/11/22 04:54:10;;;;;;;3.00;2.65;;;21.20;69.70;;;;;;5003574;28;95753;-63
2021/11/22 04:56:40;;;;;;;3.53;3.22;;;21.20;69.70;;;;;;5006634;28;95573;-63
2021/11/22 04:59:10;;;;;;;3.92;3.03;;;21.30;69.70;;;;;;4989769;28;96513;-62
2021/11/22 05:01:42;;;;;;;4.03;3.38;;;21.20;69.60;;;;;;5006461;28;96339;-63
2021/11/22 05:04:18;;;;;;;3.47;2.85;;;21.30;69.60;;;;;;5006356;28;95378;-63
2021/11/22 05:06:49;;;;;;;2.92;2.72;;;21.30;69.60;;;;;;5007168;28;95913;-62
2021/11/22 05:09:20;;;;;;;4.70;3.70;;;21.30;69.50;;;;;;5006985;28;96194;-61
2021/11/22 05:11:52;;;;;;;2.47;2.28;;;21.30;69.40;;;;;;5004144;28;95890;-61
2021/11/22 05:14:24;;;;;;;4.70;3.13;;;21.40;70.10;;;;;;5007519;28;95549;-61
2021/11/22 05:16:55;;;;;;;3.80;2.90;;;21.40;69.30;;;;;;5009478;28;95593;-62
2021/11/22 05:19:30;;;;;;;3.83;2.85;;;21.40;69.30;;;;;;5010082;28;96939;-62
2021/11/22 05:22:01;;;;;;;3.25;2.95;;;21.50;69.30;;;;;;5009771;28;95832;-63
2021/11/22 05:24:33;;;;;;;4.25;2.53;;;21.50;69.30;;;;;;5008123;28;95465;-64
2021/11/22 05:27:07;;;;;;;4.20;2.90;;;21.50;69.30;;;;;;5012146;28;97572;-63
2021/11/22 05:29:42;;;;;;;2.50;2.30;;;21.50;69.20;;;;;;5010221;28;96547;-63
2021/11/22 05:35:11;;;;;;;3.67;3.00;;;21.60;69.30;;;;;;4998399;28;96006;-62
2021/11/22 05:37:44;;;;;;;2.63;2.42;;;21.60;69.20;;;;;;4995084;28;96075;-62
2021/11/22 05:40:16;;;;;;;3.00;2.72;;;21.60;69.20;;;;;;5010406;28;96042;-64
2021/11/22 05:42:48;;;;;;;4.25;2.97;;;21.60;69.10;;;;;;5009898;28;95502;-62
2021/11/22 05:45:19;;;;;;;2.60;2.40;;;21.60;69.10;;;;;;5004255;28;95742;-61
2021/11/22 05:47:49;;;;;;;;;;;21.70;69.20;;;;;;5003705;28;95175;-61
2021/11/22 05:50:21;;;;;;;2.95;2.70;;;21.70;69.00;;;;;;5013540;28;96006;-60
2021/11/22 05:52:56;;;;;;;5.88;2.80;;;21.70;69.10;;;;;;5011952;28;96086;-60
2021/11/22 05:55:38;;;;;;;3.05;2.20;;;21.70;68.90;;;;;;5010970;28;95686;-61
2021/11/22 05:58:12;;;;;;;3.40;2.70;;;21.70;69.00;;;;;;5005900;28;96380;-62
2021/11/22 06:00:45;;;;;;;2.95;2.65;;;21.70;68.90;;;;;;5011415;28;96585;-62
2021/11/22 06:03:15;;;;;;;3.45;2.63;;;21.70;68.90;;;;;;5008841;28;98346;-63
2021/11/22 06:05:48;;;;;;;2.90;2.60;;;21.80;69.00;;;;;;5008490;28;95687;-63
2021/11/22 06:08:19;;;;;;;3.05;2.70;;;21.80;69.00;;;;;;5013823;28;95977;-63
2021/11/22 06:10:49;;;;;;;5.10;2.63;;;21.70;69.00;;;;;;5020489;28;96096;-63
2021/11/22 06:13:20;;;;;;;3.92;3.33;;;21.70;69.30;;;;;;5012505;28;95725;-63
2021/11/22 06:15:52;;;;;;;3.63;3.20;;;21.70;69.20;;;;;;5007361;28;95240;-63
2021/11/22 06:18:25;;;;;;;5.82;2.30;;;21.70;69.30;;;;;;5012759;28;95820;-63
2021/11/22 06:21:02;;;;;;;3.58;2.58;;;21.70;69.30;;;;;;5009539;28;96086;-63
2021/11/22 06:23:37;;;;;;;11.20;3.95;;;21.70;69.40;;;;;;5013998;28;95966;-63
2021/11/22 06:26:19;;;;;;;5.88;2.40;;;21.70;69.30;;;;;;4978846;28;96099;-63
2021/11/22 06:28:50;;;;;;;6.65;2.85;;;21.70;69.50;;;;;;5014583;28;95555;-63
2021/11/22 06:31:23;;;;;;;6.70;3.10;;;21.70;69.50;;;;;;5009473;28;95731;-62
2021/11/22 06:33:58;;;;;;;5.10;3.00;;;21.70;69.50;;;;;;5007852;28;98600;-60
2021/11/22 06:36:30;;;;;;;8.23;2.90;;;21.70;69.50;;;;;;4992331;28;95952;-60
2021/11/22 06:39:04;;;;;;;3.97;2.92;;;21.70;70.30;;;;;;5002655;28;95618;-60
2021/11/22 06:41:35;;;;;;;6.10;2.55;;;21.70;69.60;;;;;;5010958;28;96550;-60
2021/11/22 06:44:06;;;;;;;3.88;2.92;;;21.80;69.60;;;;;;4997392;28;95294;-61
2021/11/22 06:46:36;;;;;;;3.88;2.80;;;21.80;69.70;;;;;;4989010;28;95854;-62
2021/11/22 06:49:07;;;;;;;3.60;3.00;;;21.80;69.60;;;;;;5004325;28;95754;-63
2021/11/22 06:51:40;;;;;;;4.30;2.92;;;21.80;69.70;;;;;;5008674;28;95883;-61
2021/11/22 06:54:12;;;;;;;5.00;3.03;;;21.70;69.60;;;;;;5011982;28;95678;-61
2021/11/22 06:56:45;;;;;;;3.28;2.97;;;21.70;69.60;;;;;;5020517;28;95716;-61
2021/11/22 06:59:15;;;;;;;3.45;2.70;;;21.70;69.50;;;;;;5011685;28;95825;-61
2021/11/22 07:01:45;;;;;;;3.17;2.85;;;21.70;69.60;;;;;;5007213;28;96543;-60
2021/11/22 07:04:16;;;;;;;4.80;2.53;;;21.70;69.60;;;;;;5006039;28;95509;-61
2021/11/22 07:06:47;;;;;;;4.10;2.30;;;21.80;69.70;;;;;;5014218;28;95279;-59
2021/11/22 07:09:18;;;;;;;3.73;2.50;;;21.70;69.60;;;;;;5016062;28;95330;-60
2021/11/22 07:11:53;;;;;;;3.53;3.10;;;21.70;69.60;;;;;;4992224;28;96326;-60
2021/11/22 07:14:23;;;;;;;4.63;2.22;;;21.70;69.60;;;;;;5006890;28;95951;-59
2021/11/22 07:16:55;;;;;;;2.35;2.25;;;21.70;69.50;;;;;;5011967;28;96965;-60
2021/11/22 07:19:27;;;;;;;2.47;2.00;;;21.70;69.60;;;;;;5010789;28;95905;-60
2021/11/22 07:22:00;;;;;;;;;;;21.70;69.60;;;;;;5008786;28;96147;-60
2021/11/22 07:24:31;;;;;;;3.35;2.42;;;21.70;69.60;;;;;;5003911;28;96553;-61
2021/11/22 07:27:05;;;;;;;2.97;2.53;;;21.70;69.70;;;;;;5003178;28;95622;-60
2021/11/22 07:29:41;;;;;;;7.78;2.78;;;21.80;69.80;;;;;;5006387;28;95775;-60
2021/11/22 07:32:15;;;;;;;4.72;2.40;;;21.80;69.30;;;;;;5004973;28;97021;-60
2021/11/22 07:35:06;;;;;;;3.10;2.20;;;21.70;68.90;;;;;;4982842;28;96311;-60
2021/11/22 07:37:37;;;;;;;2.28;2.08;;;21.70;68.10;;;;;;4987994;28;100428;-60
2021/11/22 07:40:10;;;;;;;2.67;2.45;;;21.70;68.40;;;;;;5009367;28;95561;-60
2021/11/22 07:42:41;;;;;;;2.35;2.17;;;21.70;68.30;;;;;;5010421;28;96109;-60
2021/11/22 07:45:11;;;;;;;2.40;2.07;;;21.60;67.80;;;;;;5004463;28;95867;-60
2021/11/22 07:47:41;;;;;;;6.28;2.38;;;21.60;67.70;;;;;;4989621;28;95392;-62
2021/11/22 07:50:14;;;;;;;2.63;2.43;;;21.60;67.70;;;;;;5008140;28;95930;-61
2021/11/22 07:52:47;;;;;;;2.22;2.10;;;21.60;67.80;;;;;;5011299;28;97066;-61
2021/11/22 07:55:21;;;;;;;2.53;2.10;;;21.60;67.70;;;;;;5011407;28;95824;-60
2021/11/22 07:57:55;;;;;;;2.13;2.03;;;21.50;67.50;;;;;;5012524;28;95793;-60
2021/11/22 08:00:30;;;;;;;2.67;2.08;;;21.60;67.40;;;;;;5013888;28;95612;-60
2021/11/22 08:03:02;;;;;;;5.30;2.00;;;21.60;67.20;;;;;;5009029;28;96409;-60
2021/11/22 08:05:35;;;;;;;1.98;1.77;;;21.60;67.10;;;;;;5005702;28;95872;-60
2021/11/22 08:08:07;;;;;;;2.72;2.35;;;21.50;67.00;;;;;;5006534;28;96074;-62
2021/11/22 08:10:38;;;;;;;2.28;1.90;;;21.50;67.10;;;;;;5006937;28;96838;-61
2021/11/22 08:13:10;;;;;;;2.92;1.98;;;21.50;67.30;;;;;;4998392;28;96863;-60
2021/11/22 08:15:42;;;;;;;3.78;2.30;;;21.50;67.60;;;;;;5004510;28;95854;-61
2021/11/22 08:18:16;;;;;;;3.40;2.08;;;21.50;67.80;;;;;;5008848;28;95563;-59
2021/11/22 08:20:47;;;;;;;3.50;2.15;;;21.60;68.10;;;;;;5004753;28;95784;-61
2021/11/22 08:23:19;;;;;;;2.67;2.22;;;21.60;68.10;;;;;;4991202;28;96400;-60
2021/11/22 08:25:51;;;;;;;3.08;2.20;;;21.60;68.30;;;;;;5001813;28;96522;-60
2021/11/22 08:28:25;;;;;;;2.72;2.20;;;21.60;68.50;;;;;;5004122;28;95739;-59
2021/11/22 08:30:57;;;;;;;1.70;1.60;;;21.60;68.50;;;;;;5006321;28;95788;-59
2021/11/22 08:33:29;;;;;;;2.35;1.88;;;21.60;68.50;;;;;;4990750;28;96093;-59
2021/11/22 08:36:00;;;;;;;4.22;2.40;;;21.60;68.60;;;;;;4995086;28;96266;-59
2021/11/22 08:38:33;;;;;;;2.40;2.08;;;21.60;68.70;;;;;;4998346;28;95786;-60
2021/11/22 08:41:05;;;;;;;5.10;2.50;;;21.60;68.60;;;;;;5006673;28;95235;-62
2021/11/22 08:43:36;;;;;;;2.67;2.45;;;21.60;68.70;;;;;;4990112;28;96072;-61
2021/11/22 08:46:07;;;;;;;3.15;1.60;;;21.60;68.80;;;;;;5007524;28;95696;-61
2021/11/22 08:48:39;;;;;;;2.17;1.98;;;21.60;69.00;;;;;;5003107;28;95766;-60
2021/11/22 08:51:11;;;;;;;2.67;2.47;;;21.60;69.10;;;;;;4997380;28;95380;-63
2021/11/22 08:53:45;;;;;;;3.92;2.15;;;21.60;69.40;;;;;;5007692;28;96773;-61
2021/11/22 08:56:16;;;;;;;4.32;2.40;;;21.60;69.40;;;;;;5006498;28;96079;-60
2021/11/22 08:58:47;;;;;;;;;;;21.50;69.90;;;;;;5007166;28;96090;-63
2021/11/22 09:01:17;;;;;;;2.58;1.83;;;21.60;71.10;;;;;;5007443;28;95720;-61
2021/11/22 09:03:48;;;;;;;2.72;2.33;;;21.60;70.00;;;;;;5006849;28;96294;-63
2021/11/22 09:06:20;;;;;;;1.80;1.70;;;21.50;70.20;;;;;;4989668;28;96357;-62
2021/11/22 09:08:50;;;;;;;2.45;1.80;;;21.50;70.20;;;;;;5008603;28;95286;-61
2021/11/22 09:11:21;;;;;;;3.00;2.17;;;21.50;69.00;;;;;;5005067;28;95700;-61
2021/11/22 09:13:51;;;;;;;3.60;2.30;;;21.50;70.20;;;;;;5005407;28;96117;-62
2021/11/22 09:16:27;;;;;;;4.00;2.10;;;21.50;70.40;;;;;;5006408;28;95662;-60
2021/11/22 09:19:01;;;;;;;2.10;1.90;;;21.50;70.50;;;;;;4992609;28;98103;-61
2021/11/22 09:21:32;;;;;;;3.95;1.80;;;21.50;70.70;;;;;;5011335;28;95547;-59
2021/11/22 09:24:05;;;;;;;5.38;2.38;;;21.40;70.60;;;;;;5010403;28;96417;-60
2021/11/22 09:26:37;;;;;;;3.67;1.85;;;21.40;70.80;;;;;;5010193;28;95773;-61
2021/11/22 09:29:09;;;;;;;3.35;1.55;;;21.40;70.80;;;;;;5005622;28;95904;-62
2021/11/22 09:31:41;;;;;;;2.63;2.00;;;21.40;71.40;;;;;;4986879;28;95784;-62
2021/11/22 09:34:14;;;;;;;3.13;2.83;;;21.40;70.70;;;;;;5006254;28;95947;-63
2021/11/22 09:36:47;;;;;;;6.82;2.00;;;21.40;70.70;;;;;;4989346;28;96357;-61
2021/11/22 09:39:22;;;;;;;2.15;1.80;;;21.40;70.90;;;;;;5003507;28;95783;-61
2021/11/22 09:41:53;;;;;;;2.53;2.13;;;21.40;71.10;;;;;;5005926;28;95730;-61
2021/11/22 09:44:23;;;;;;;3.78;1.70;;;21.40;71.20;;;;;;5006261;28;96212;-60
2021/11/22 09:46:54;;;;;;;2.35;1.80;;;21.40;71.20;;;;;;5006170;28;95937;-62
2021/11/22 09:49:25;;;;;;;3.08;2.10;;;21.30;71.30;;;;;;4990635;28;95524;-62
2021/11/22 09:51:58;;;;;;;2.80;1.90;;;21.30;71.40;;;;;;5016140;28;96104;-62
2021/11/22 09:54:32;;;;;;;5.15;2.35;;;21.30;71.40;;;;;;5005774;28;96061;-61
2021/11/22 09:57:03;;;;;;;4.18;2.00;;;21.30;71.60;;;;;;5007721;28;96240;-63
2021/11/22 09:59:34;;;;;;;6.38;2.13;;;21.30;71.70;;;;;;5002507;28;97707;-62
2021/11/22 10:02:04;;;;;;;2.40;2.20;;;21.20;71.70;;;;;;5006695;28;95729;-62
2021/11/22 10:04:35;;;;;;;2.05;1.80;;;21.20;71.80;;;;;;5005240;28;96338;-62
2021/11/22 10:07:08;;;;;;;2.30;1.77;;;21.20;71.90;;;;;;5010837;28;96335;-64
2021/11/22 10:09:43;;;;;;;2.65;1.90;;;21.20;71.80;;;;;;5006765;28;95979;-62
2021/11/22 10:12:25;;;;;;;4.40;2.13;;;21.20;71.90;;;;;;5008277;28;96073;-62
2021/11/22 10:14:58;;;;;;;3.63;2.10;;;21.10;71.90;;;;;;4993896;28;96451;-64
2021/11/22 10:17:35;;;;;;;2.20;2.00;;;21.10;71.90;;;;;;5012023;28;95778;-62
2021/11/22 10:20:12;;;;;;;2.95;2.13;;;21.10;72.10;;;;;;5008369;28;95815;-63
2021/11/22 10:23:04;;;;;;;3.40;1.98;;;21.10;72.00;;;;;;5012623;28;95835;-62
2021/11/22 10:25:40;;;;;;;4.65;2.10;;;21.10;72.10;;;;;;5009960;28;96168;-62
2021/11/22 10:28:19;;;;;;;2.25;1.92;;;21.10;72.20;;;;;;5006722;28;95773;-62
2021/11/22 10:31:07;;;;;;;3.60;2.10;;;21.00;72.10;;;;;;5007602;28;95372;-62
2021/11/22 10:33:41;;;;;;;2.90;1.65;;;21.00;72.20;;;;;;5009130;28;96087;-62
2021/11/22 10:36:25;;;;;;;3.25;1.83;;;21.00;72.20;;;;;;4993859;28;96230;-63
2021/11/22 10:39:01;;;;;;;3.10;2.08;;;21.00;72.30;;;;;;5002645;28;95503;-63
2021/11/22 10:41:43;;;;;;;3.40;1.90;;;20.90;72.30;;;;;;5007911;28;95753;-63
2021/11/22 10:44:18;;;;;;;3.35;1.65;;;20.90;72.30;;;;;;5012314;28;95806;-64
2021/11/22 10:49:32;;;;;;;4.53;2.17;;;20.90;72.30;;;;;;5004118;28;95644;-64
2021/11/22 10:52:35;;;;;;;2.17;1.90;;;20.80;72.40;;;;;;5008868;28;96897;-63
2021/11/22 10:55:10;;;;;;;2.03;1.55;;;20.80;72.40;;;;;;5000744;28;95705;-64
2021/11/22 10:57:49;;;;;;;4.95;1.98;;;20.80;72.40;;;;;;5007995;28;96150;-64
2021/11/22 11:00:20;;;;;;;1.58;1.48;;;20.80;72.40;;;;;;5008699;28;95799;-64
2021/11/22 11:02:53;;;;;;;2.23;1.90;;;20.80;72.50;;;;;;5005860;28;95359;-63
2021/11/22 11:05:33;;;;;;;2.53;1.70;;;20.80;72.50;;;;;;5010160;28;95603;-63
2021/11/22 11:08:10;;;;;;;2.85;1.73;;;20.80;72.50;;;;;;4995222;28;96063;-62
2021/11/22 11:10:43;;;;;;;2.67;2.05;;;20.80;72.50;;;;;;5005057;28;95687;-63
2021/11/22 11:13:46;;;;;;;;;;;20.70;72.50;;;;;;5009608;28;95976;-62
2021/11/22 11:16:18;;;;;;;4.05;1.80;;;20.70;72.60;;;;;;5009079;28;95947;-63
2021/11/22 11:19:03;;;;;;;3.83;2.10;;;20.70;72.60;;;;;;5008912;28;96175;-62
2021/11/22 11:21:38;;;;;;;3.38;1.90;;;20.70;72.60;;;;;;5003655;28;95860;-64
2021/11/22 11:24:17;;;;;;;4.65;2.05;;;20.60;72.50;;;;;;5003961;28;95776;-63
2021/11/22 11:26:49;;;;;;;5.60;2.42;;;20.60;73.20;;;;;;5007780;28;95919;-63
2021/11/22 11:29:21;;;;;;;4.85;2.05;;;20.60;72.60;;;;;;5007270;28;97100;-62
2021/11/22 11:31:55;;;;;;;3.50;1.65;;;20.50;72.60;;;;;;5004201;28;95758;-62
2021/11/22 11:34:33;;;;;;;10.95;2.08;;;20.50;72.50;;;;;;5007812;28;97459;-62
2021/11/22 11:37:20;;;;;;;2.10;1.83;;;20.50;72.60;;;;;;4992488;28;95390;-62
2021/11/22 11:40:24;;;;;;;4.25;1.70;;;20.50;72.60;;;;;;5005097;28;96391;-62
2021/11/22 11:43:13;;;;;;;4.22;2.22;;;20.50;72.60;;;;;;5005601;28;95731;-62
2021/11/22 11:46:10;;;;;;;6.18;2.33;;;20.40;72.40;;;;;;5007316;28;95583;-63
2021/11/22 11:48:57;;;;;;;3.55;2.45;;;20.40;72.50;;;;;;5007545;28;95781;-63
2021/11/22 11:51:43;;;;;;;3.47;2.33;;;20.40;72.50;;;;;;5011809;28;97646;-62
2021/11/22 11:54:21;;;;;;;;;;;20.30;72.40;;;;;;5008973;28;95517;-63
2021/11/22 11:57:07;;;;;;;2.65;2.33;;;20.30;72.50;;;;;;5011593;28;95211;-64
2021/11/22 11:59:41;;;;;;;3.45;2.42;;;20.30;72.50;;;;;;4989741;28;95808;-62
2021/11/22 12:02:22;;;;;;;3.38;2.20;;;20.30;72.50;;;;;;5010785;28;96685;-63
2021/11/22 12:05:11;;;;;;;3.47;2.22;;;20.30;72.50;;;;;;5006982;28;95449;-62
2021/11/22 12:07:49;;;;;;;3.40;2.30;;;20.20;72.50;;;;;;5006442;28;95498;-63
2021/11/22 12:10:27;;;;;;;4.90;1.77;;;20.20;72.60;;;;;;5002240;28;95761;-63
2021/11/22 12:13:09;;;;;;;2.45;2.13;;;20.20;72.60;;;;;;5003377;28;97072;-63
2021/11/22 12:15:46;;;;;;;3.67;2.42;;;20.20;72.60;;;;;;5006978;28;95806;-63
2021/11/22 12:18:39;;;;;;;3.85;1.83;;;20.20;72.70;;;;;;5004791;28;98133;-62
2021/11/22 12:21:22;;;;;;;3.50;2.20;;;20.10;72.70;;;;;;5007845;28;95825;-63
2021/11/22 12:23:55;;;;;;;4.78;2.10;;;20.10;72.80;;;;;;5005285;28;96436;-63
2021/11/22 12:26:36;;;;;;;2.72;1.95;;;20.10;72.80;;;;;;5003760;28;97498;-62
2021/11/22 12:29:08;;;;;;;2.25;1.90;;;20.10;72.80;;;;;;4994968;28;95424;-62
2021/11/22 12:31:49;;;;;;;3.53;2.42;;;20.10;72.80;;;;;;4999805;28;95328;-62
2021/11/22 12:34:40;;;;;;;2.17;1.98;;;20.10;72.90;;;;;;4988539;28;96456;-63
2021/11/22 12:37:28;;;;;;;3.40;1.98;;;20.00;72.80;;;;;;4990251;28;96391;-64
2021/11/22 12:40:16;;;;;;;4.47;2.45;;;20.00;73.00;;;;;;5002354;28;95895;-63
2021/11/22 12:42:54;;;;;;;3.47;2.20;;;20.00;73.00;;;;;;5001440;28;95391;-62
2021/11/22 12:45:24;;;;;;;3.08;1.98;;;19.90;72.90;;;;;;5003097;28;96065;-62
2021/11/22 12:47:55;;;;;;;2.85;1.90;;;19.90;73.00;;;;;;4986650;28;95980;-64
2021/11/22 12:50:28;;;;;;;2.85;2.38;;;19.90;73.00;;;;;;5007963;28;95867;-61
2021/11/22 12:53:17;;;;;;;4.05;2.20;;;19.90;73.20;;;;;;5004831;28;95970;-62
2021/11/22 12:55:50;;;;;;;3.22;2.40;;;19.80;73.00;;;;;;5005750;28;96412;-61
2021/11/22 12:58:32;;;;;;;5.15;2.38;;;19.80;73.10;;;;;;5007295;28;96234;-61
2021/11/22 13:01:06;;;;;;;3.55;2.53;;;19.80;73.10;;;;;;5005102;28;95717;-61
2021/11/22 13:03:51;;;;;;;3.17;2.42;;;19.80;73.20;;;;;;5008885;28;95615;-60
2021/11/22 13:06:39;;;;;;;4.88;2.97;;;19.80;73.10;;;;;;4996622;28;95873;-61
2021/11/22 13:09:29;;;;;;;2.78;2.50;;;19.70;71.80;;;;;;4990451;28;95484;-61
2021/11/22 13:12:02;;;;;;;3.35;2.15;;;19.70;73.20;;;;;;5005590;28;95911;-63
2021/11/22 13:14:47;;;;;;;3.28;2.72;;;19.70;73.20;;;;;;5004804;28;95573;-63
2021/11/22 13:17:18;;;;;;;3.25;2.70;;;19.70;73.20;;;;;;5006538;28;96525;-61
2021/11/22 13:19:56;;;;;;;5.00;2.58;;;19.60;73.10;;;;;;4991814;28;96003;-61
2021/11/22 13:22:28;;;;;;;4.65;3.00;;;19.60;73.20;;;;;;5008808;28;95673;-61
2021/11/22 13:25:14;;;;;;;3.15;2.80;;;19.60;73.20;;;;;;5002454;28;95513;-61
2021/11/22 13:28:09;;;;;;;4.28;2.60;;;19.60;73.30;;;;;;5004286;28;95824;-61
2021/11/22 13:31:09;;;;;;;4.10;2.60;;;19.60;73.30;;;;;;5003513;28;95822;-63